createdAt,value
2022-11-13T00:02:36.315Z,3.43
2022-11-13T00:07:37.715Z,3.43
2022-11-13T00:12:39.137Z,3.49
2022-11-13T00:17:40.468Z,3.41
2022-11-13T00:22:42.479Z,3.44
2022-11-13T00:27:43.977Z,3.51
2022-11-13T00:32:45.536Z,3.52
2022-11-13T00:37:46.927Z,3.55
2022-11-13T00:42:48.299Z,3.44
2022-11-13T00:47:49.641Z,3.45
2022-11-13T00:52:51.204Z,3.29
2022-11-13T00:57:52.571Z,3.28
2022-11-13T01:02:53.986Z,3.25
2022-11-13T01:07:55.381Z,3.24
2022-11-13T01:12:56.779Z,3.13
2022-11-13T01:17:58.210Z,3.13
2022-11-13T01:22:59.621Z,3.07
2022-11-13T01:28:01.032Z,3.01
2022-11-13T01:33:02.414Z,2.98
2022-11-13T01:38:03.865Z,2.95
2022-11-13T01:43:25.299Z,2.81
2022-11-13T01:48:32.267Z,2.80
2022-11-13T01:53:33.914Z,2.83
2022-11-13T01:58:35.836Z,2.78
2022-11-13T02:03:37.434Z,2.66
2022-11-13T02:08:39.290Z,2.61
2022-11-13T02:13:41.070Z,2.62
2022-11-13T02:18:43.061Z,2.57
2022-11-13T02:23:58.491Z,2.54
2022-11-13T02:28:59.927Z,2.61
2022-11-13T02:34:02.649Z,2.44
2022-11-13T02:39:08.799Z,2.47
2022-11-13T02:44:10.242Z,2.45
2022-11-13T02:49:11.621Z,2.26
2022-11-13T02:54:16.895Z,2.36
2022-11-13T02:59:18.728Z,2.30
2022-11-13T03:04:20.093Z,2.28
2022-11-13T03:09:21.490Z,2.24
2022-11-13T03:14:22.838Z,2.32
2022-11-13T03:19:24.489Z,2.30
2022-11-13T03:24:25.912Z,2.33
2022-11-13T03:29:27.477Z,2.32
2022-11-13T03:34:29.061Z,2.25
2022-11-13T03:39:30.453Z,2.22
2022-11-13T03:44:31.866Z,2.14
2022-11-13T03:49:33.286Z,2.15
2022-11-13T03:54:34.705Z,2.20
2022-11-13T03:59:36.087Z,2.13
2022-11-13T04:04:37.559Z,2.24
2022-11-13T04:09:38.916Z,2.19
2022-11-13T04:14:40.319Z,2.28
2022-11-13T04:19:41.689Z,2.50
2022-11-13T04:24:43.076Z,2.46
2022-11-13T04:29:44.439Z,2.33
2022-11-13T04:34:45.989Z,2.30
2022-11-13T04:39:47.544Z,2.23
2022-11-13T04:44:48.886Z,2.18
2022-11-13T04:49:50.253Z,2.15
2022-11-13T04:54:51.664Z,2.10
2022-11-13T04:59:53.046Z,2.02
2022-11-13T05:04:54.429Z,1.93
2022-11-13T05:09:55.886Z,1.94
2022-11-13T05:14:57.246Z,1.94
2022-11-13T05:19:58.648Z,1.93
2022-11-13T05:25:00.116Z,1.77
2022-11-13T05:30:02.225Z,1.80
2022-11-13T05:35:04.032Z,1.75
2022-11-13T05:40:06.180Z,1.80
2022-11-13T05:45:08.099Z,1.75
2022-11-13T05:50:09.828Z,1.61
2022-11-13T05:55:11.231Z,1.55
2022-11-13T06:00:13.197Z,1.54
2022-11-13T06:05:14.730Z,1.59
2022-11-13T06:10:16.606Z,1.50
2022-11-13T06:15:17.974Z,1.48
2022-11-13T06:20:19.368Z,1.31
2022-11-13T06:25:20.742Z,1.31
2022-11-13T06:30:22.147Z,1.18
2022-11-13T06:35:23.764Z,1.14
2022-11-13T06:40:25.143Z,1.11
2022-11-13T06:45:26.497Z,1.28
2022-11-13T06:50:27.889Z,1.03
2022-11-13T06:55:29.407Z,1.12
2022-11-13T07:00:36.233Z,1.16
2022-11-13T07:05:38.426Z,1.12
2022-11-13T07:10:40.376Z,1.05
2022-11-13T07:15:41.731Z,1.12
2022-11-13T07:20:43.705Z,1.10
2022-11-13T07:25:45.061Z,1.06
2022-11-13T07:30:46.414Z,1.03
2022-11-13T07:35:47.921Z,1.09
2022-11-13T07:40:49.968Z,1.19
2022-11-13T07:45:54.648Z,1.34
2022-11-13T07:50:59.757Z,1.21
2022-11-13T07:56:02.935Z,1.27
2022-11-13T08:01:06.012Z,1.26
2022-11-13T08:06:07.982Z,1.48
2022-11-13T08:11:10.016Z,1.66
2022-11-13T08:16:11.451Z,1.83
2022-11-13T08:21:15.038Z,1.78
2022-11-13T08:26:18.497Z,1.90
2022-11-13T08:31:19.934Z,2.32
2022-11-13T08:36:21.307Z,2.40
2022-11-13T08:41:22.725Z,2.57
2022-11-13T08:46:24.118Z,2.93
2022-11-13T08:51:25.533Z,3.13
2022-11-13T08:56:26.963Z,3.75
2022-11-13T09:01:28.326Z,3.89
2022-11-13T09:06:29.733Z,4.02
2022-11-13T09:11:31.088Z,3.99
2022-11-13T09:16:32.475Z,4.43
2022-11-13T09:21:33.893Z,4.64
2022-11-13T09:26:36.236Z,4.96
2022-11-13T09:31:40.927Z,5.16
2022-11-13T09:36:42.345Z,5.47
2022-11-13T09:41:53.805Z,5.92
2022-11-13T09:47:13.326Z,6.33
2022-11-13T09:52:20.573Z,7.19
2022-11-13T09:57:50.036Z,7.26
2022-11-13T10:03:09.711Z,7.57
2022-11-13T10:08:48.757Z,8.05
2022-11-13T10:13:54.400Z,8.36
2022-11-13T10:19:19.587Z,8.23
2022-11-13T10:24:27.517Z,8.37
2022-11-13T10:29:29.642Z,8.93
2022-11-13T10:34:33.176Z,9.18
2022-11-13T10:39:42.626Z,9.43
2022-11-13T10:44:53.793Z,10.67
2022-11-13T10:49:56.196Z,11.47
2022-11-13T10:55:29.635Z,12.54
2022-11-13T11:00:38.805Z,12.30
2022-11-13T11:05:40.364Z,13.67
2022-11-13T11:11:01.831Z,14.44
2022-11-13T11:16:05.490Z,13.66
2022-11-13T11:21:12.870Z,15.15
2022-11-13T11:26:21.180Z,14.51
2022-11-13T11:31:41.607Z,14.72
2022-11-13T11:37:04.465Z,15.06
2022-11-13T11:42:39.481Z,14.81
2022-11-13T11:47:41.184Z,14.70
2022-11-13T11:52:56.118Z,14.59
2022-11-13T11:57:57.710Z,14.43
2022-11-13T12:03:20.204Z,13.93
2022-11-13T12:08:32.372Z,14.37
2022-11-13T12:13:44.276Z,14.61
2022-11-13T12:19:10.719Z,14.60
2022-11-13T12:24:17.441Z,14.56
2022-11-13T12:29:38.103Z,14.23
2022-11-13T12:34:45.027Z,13.81
2022-11-13T12:39:52.991Z,13.86
2022-11-13T12:45:12.477Z,13.87
2022-11-13T12:50:31.760Z,14.21
2022-11-13T12:55:36.525Z,13.62
2022-11-13T13:00:41.426Z,13.60
2022-11-13T13:05:56.081Z,13.42
2022-11-13T13:11:11.793Z,13.62
2022-11-13T13:16:22.770Z,13.46
2022-11-13T13:21:24.437Z,13.74
2022-11-13T13:26:29.989Z,13.63
2022-11-13T13:31:41.307Z,13.58
2022-11-13T13:37:03.839Z,13.29
2022-11-13T13:42:31.608Z,13.45
2022-11-13T13:47:41.654Z,13.50
2022-11-13T13:52:44.730Z,13.40
2022-11-13T13:57:46.982Z,13.48
2022-11-13T14:02:51.116Z,13.16
2022-11-13T14:07:52.513Z,13.46
2022-11-13T14:12:55.420Z,13.32
2022-11-13T14:18:07.108Z,13.26
2022-11-13T14:23:12.181Z,12.94
2022-11-13T14:28:16.831Z,12.82
2022-11-13T14:33:32.985Z,12.72
2022-11-13T14:38:40.514Z,12.64
2022-11-13T14:43:50.220Z,12.28
2022-11-13T14:48:55.335Z,11.53
2022-11-13T14:54:08.976Z,11.35
2022-11-13T14:59:25.808Z,10.95
2022-11-13T15:04:28.439Z,10.78
2022-11-13T15:09:31.017Z,10.31
2022-11-13T15:14:33.120Z,10.13
2022-11-13T15:19:37.138Z,9.98
2022-11-13T15:24:38.554Z,9.70
2022-11-13T15:29:39.931Z,9.54
2022-11-13T15:34:41.845Z,9.48
2022-11-13T15:39:43.316Z,9.17
2022-11-13T15:44:44.672Z,9.15
2022-11-13T15:49:56.692Z,8.99
2022-11-13T15:55:20.152Z,8.77
2022-11-13T16:00:27.608Z,8.55
2022-11-13T16:05:29.638Z,8.34
2022-11-13T16:10:31.165Z,8.32
2022-11-13T16:15:32.944Z,8.05
2022-11-13T16:20:34.382Z,7.87
2022-11-13T16:25:35.807Z,7.67
2022-11-13T16:30:37.691Z,7.50
2022-11-13T16:35:40.096Z,7.29
2022-11-13T16:40:42.963Z,7.14
2022-11-13T16:45:44.681Z,7.13
2022-11-13T16:50:46.112Z,7.04
2022-11-13T16:55:48.492Z,6.99
2022-11-13T17:00:49.878Z,6.85
2022-11-13T17:05:52.380Z,6.70
2022-11-13T17:10:58.069Z,6.52
2022-11-13T17:16:02.409Z,6.56
2022-11-13T17:21:04.167Z,6.51
2022-11-13T17:26:06.069Z,6.48
2022-11-13T17:31:12.485Z,6.23
2022-11-13T17:36:15.836Z,6.39
2022-11-13T17:41:17.672Z,6.26
2022-11-13T17:46:19.316Z,6.45
2022-11-13T17:51:20.733Z,6.54
2022-11-13T17:56:22.194Z,6.17
2022-11-13T18:01:23.836Z,6.09
2022-11-13T18:06:25.660Z,5.98
2022-11-13T18:11:29.275Z,6.07
2022-11-13T18:16:34.539Z,6.02
2022-11-13T18:21:37.204Z,5.89
2022-11-13T18:26:38.924Z,5.81
2022-11-13T18:31:40.314Z,5.79
2022-11-13T18:36:42.187Z,5.55
2022-11-13T18:41:43.928Z,5.43
2022-11-13T18:46:45.504Z,5.55
2022-11-13T18:51:46.905Z,5.34
2022-11-13T18:56:48.286Z,5.23
2022-11-13T19:01:49.839Z,5.31
2022-11-13T19:06:52.179Z,5.07
2022-11-13T19:11:54.243Z,5.10
2022-11-13T19:16:55.630Z,4.99
2022-11-13T19:21:57.054Z,4.87
2022-11-13T19:27:00.285Z,4.83
2022-11-13T19:32:03.280Z,4.87
2022-11-13T19:37:05.088Z,4.75
2022-11-13T19:42:06.500Z,4.72
2022-11-13T19:47:08.073Z,4.59
2022-11-13T19:52:10.508Z,4.55
2022-11-13T19:57:15.630Z,4.64
2022-11-13T20:02:20.982Z,4.65
2022-11-13T20:07:22.625Z,4.59
2022-11-13T20:12:24.408Z,4.45
2022-11-13T20:17:25.931Z,4.41
2022-11-13T20:22:27.491Z,4.37
2022-11-13T20:27:30.805Z,4.33
2022-11-13T20:32:35.926Z,4.29
2022-11-13T20:37:37.407Z,3.95
2022-11-13T20:42:38.834Z,4.05
2022-11-13T20:47:40.433Z,3.94
2022-11-13T20:52:41.979Z,3.97
2022-11-13T20:57:43.475Z,3.94
2022-11-13T21:02:45.905Z,3.98
2022-11-13T21:07:47.488Z,3.95
2022-11-13T21:12:48.847Z,3.89
2022-11-13T21:17:50.333Z,3.69
2022-11-13T21:22:51.731Z,3.66
2022-11-13T21:27:56.342Z,3.53
2022-11-13T21:32:59.555Z,3.49
2022-11-13T21:38:04.326Z,3.31
2022-11-13T21:43:05.724Z,3.36
2022-11-13T21:48:07.162Z,3.30
2022-11-13T21:53:08.533Z,3.34
2022-11-13T21:58:09.980Z,3.24
2022-11-13T22:03:11.342Z,3.29
2022-11-13T22:08:12.750Z,3.12
2022-11-13T22:13:14.116Z,3.33
2022-11-13T22:18:15.495Z,3.14
2022-11-13T22:23:16.972Z,3.15
2022-11-13T22:28:18.318Z,3.23
2022-11-13T22:33:19.801Z,3.42
2022-11-13T22:38:21.163Z,3.43
2022-11-13T22:43:22.578Z,3.41
2022-11-13T22:48:24.165Z,3.21
2022-11-13T22:53:25.517Z,3.24
2022-11-13T22:58:28.320Z,3.37
2022-11-13T23:03:29.931Z,3.36
2022-11-13T23:08:32.244Z,3.45
2022-11-13T23:13:33.798Z,3.58
2022-11-13T23:18:35.194Z,3.56
2022-11-13T23:23:37.169Z,3.36
2022-11-13T23:28:39.247Z,3.40
2022-11-13T23:33:40.950Z,3.49
2022-11-13T23:38:42.333Z,3.31
2022-11-13T23:49:05.087Z,3.59
2022-11-13T23:54:06.458Z,3.60
2022-11-13T23:59:08.405Z,3.56
